createdAt,value
2019-04-01T00:01:07.672Z,78.80
2019-04-01T00:03:36.360Z,78.70
2019-04-01T00:06:04.774Z,79.90
2019-04-01T00:08:33.193Z,81.30
2019-04-01T00:11:01.630Z,81.20
2019-04-01T00:13:30.037Z,81.70
2019-04-01T00:15:58.456Z,81.40
2019-04-01T00:18:26.867Z,82.40
2019-04-01T00:20:55.283Z,82.30
2019-04-01T00:23:23.690Z,81.50
2019-04-01T00:25:52.128Z,81.80
2019-04-01T00:28:20.530Z,81.70
2019-04-01T00:30:48.950Z,81.00
2019-04-01T00:33:17.365Z,81.10
2019-04-01T00:35:45.797Z,81.30
2019-04-01T00:38:14.191Z,80.60
2019-04-01T00:40:42.614Z,80.80
2019-04-01T00:43:12.667Z,81.10
2019-04-01T00:45:45.587Z,81.60
2019-04-01T00:48:13.988Z,81.70
2019-04-01T00:50:42.430Z,81.90
2019-04-01T00:53:10.846Z,82.30
2019-04-01T00:55:39.271Z,82.30
2019-04-01T00:58:07.676Z,82.70
2019-04-01T01:00:36.114Z,82.80
2019-04-01T01:03:04.515Z,84.00
2019-04-01T01:05:32.939Z,84.00
2019-04-01T01:08:01.354Z,83.80
2019-04-01T01:10:29.762Z,83.60
2019-04-01T01:12:58.179Z,84.60
2019-04-01T01:15:26.588Z,84.90
2019-04-01T01:17:55.014Z,84.40
2019-04-01T01:20:23.423Z,84.00
2019-04-01T01:22:51.866Z,84.60
2019-04-01T01:25:20.351Z,85.50
2019-04-01T01:27:48.744Z,86.30
2019-04-01T01:30:17.222Z,86.60
2019-04-01T01:32:45.670Z,87.10
2019-04-01T01:35:14.079Z,87.70
2019-04-01T01:37:42.498Z,88.20
2019-04-01T01:40:10.911Z,87.80
2019-04-01T01:42:39.319Z,87.80
2019-04-01T01:45:07.806Z,88.00
2019-04-01T01:47:36.211Z,88.40
2019-04-01T01:50:06.749Z,88.20
2019-04-01T01:52:35.171Z,88.30
2019-04-01T01:55:03.657Z,88.00
2019-04-01T01:57:32.070Z,87.90
2019-04-01T02:00:00.515Z,87.90
2019-04-01T02:02:28.975Z,87.60
2019-04-01T02:04:57.427Z,88.20
2019-04-01T02:07:25.872Z,89.40
2019-04-01T02:09:54.355Z,89.90
2019-04-01T02:12:22.785Z,90.20
2019-04-01T02:14:51.191Z,90.10
2019-04-01T02:17:19.610Z,89.90
2019-04-01T02:19:48.003Z,89.40
2019-04-01T02:22:16.432Z,89.90
2019-04-01T02:24:44.835Z,89.70
2019-04-01T02:27:13.244Z,89.40
2019-04-01T02:29:41.670Z,89.10
2019-04-01T02:32:10.083Z,89.10
2019-04-01T02:34:38.499Z,89.60
2019-04-01T02:37:06.903Z,89.80
2019-04-01T02:39:35.310Z,89.70
2019-04-01T02:42:04.009Z,90.00
2019-04-01T02:44:32.394Z,89.90
2019-04-01T02:47:00.833Z,89.70
2019-04-01T02:49:29.264Z,90.30
2019-04-01T02:51:57.694Z,91.00
2019-04-01T02:54:26.205Z,91.30
2019-04-01T02:56:54.715Z,91.60
2019-04-01T02:59:23.136Z,91.60
2019-04-01T03:01:51.553Z,91.30
2019-04-01T03:04:20.049Z,91.30
2019-04-01T03:06:48.459Z,91.00
2019-04-01T03:09:16.877Z,91.00
2019-04-01T03:11:45.271Z,90.80
2019-04-01T03:14:13.718Z,90.90
2019-04-01T03:16:42.123Z,90.70
2019-04-01T03:19:10.578Z,90.60
2019-04-01T03:21:39.041Z,90.50
2019-04-01T03:24:07.463Z,90.80
2019-04-01T03:26:35.867Z,91.00
2019-04-01T03:29:04.301Z,90.90
2019-04-01T03:31:32.730Z,91.00
2019-04-01T03:34:01.310Z,91.00
2019-04-01T03:36:29.711Z,91.10
2019-04-01T03:38:58.151Z,91.00
2019-04-01T03:41:26.631Z,90.90
2019-04-01T03:43:55.210Z,91.00
2019-04-01T03:46:23.687Z,91.30
2019-04-01T03:48:52.125Z,91.50
2019-04-01T03:51:20.518Z,91.30
2019-04-01T03:53:48.958Z,91.30
2019-04-01T03:56:17.378Z,91.20
2019-04-01T03:58:45.865Z,91.10
2019-04-01T04:01:14.273Z,90.90
2019-04-01T04:03:42.703Z,91.20
2019-04-01T04:06:11.104Z,90.90
2019-04-01T04:08:39.519Z,91.00
2019-04-01T04:11:08.036Z,91.30
2019-04-01T04:13:36.450Z,91.40
2019-04-01T04:16:04.891Z,91.40
2019-04-01T04:18:33.348Z,91.50
2019-04-01T04:21:01.753Z,91.70
2019-04-01T04:23:30.168Z,91.80
2019-04-01T04:25:58.598Z,91.80
2019-04-01T04:28:27.018Z,91.60
2019-04-01T04:30:55.435Z,91.80
2019-04-01T04:33:23.911Z,92.10
2019-04-01T04:35:52.355Z,92.50
2019-04-01T04:38:20.796Z,92.70
2019-04-01T04:40:49.251Z,92.90
2019-04-01T04:43:17.662Z,92.90
2019-04-01T04:45:46.108Z,93.10
2019-04-01T04:48:14.532Z,92.90
2019-04-01T04:50:42.948Z,93.00
2019-04-01T04:53:11.347Z,93.10
2019-04-01T04:55:39.772Z,93.20
2019-04-01T04:58:08.191Z,93.10
2019-04-01T05:00:36.598Z,93.00
2019-04-01T05:03:05.051Z,93.10
2019-04-01T05:05:33.481Z,93.00
2019-04-01T05:08:01.891Z,93.10
2019-04-01T05:10:30.307Z,93.30
2019-04-01T05:12:58.714Z,93.30
2019-04-01T05:15:27.138Z,93.90
2019-04-01T05:17:55.593Z,94.10
2019-04-01T05:20:24.024Z,94.30
2019-04-01T05:22:52.964Z,94.10
2019-04-01T05:25:21.445Z,94.40
2019-04-01T05:27:51.490Z,94.00
2019-04-01T05:30:19.984Z,94.30
2019-04-01T05:32:49.983Z,94.30
2019-04-01T05:35:18.394Z,94.40
2019-04-01T05:37:47.159Z,94.40
2019-04-01T05:40:15.649Z,94.20
2019-04-01T05:42:44.132Z,94.30
2019-04-01T05:45:12.727Z,94.00
2019-04-01T05:47:42.751Z,93.80
2019-04-01T05:50:12.103Z,93.80
2019-04-01T05:52:40.593Z,93.40
2019-04-01T05:55:09.347Z,93.30
2019-04-01T05:57:38.003Z,93.20
2019-04-01T06:00:07.609Z,92.80
2019-04-01T06:02:36.034Z,93.00
2019-04-01T06:05:06.489Z,92.80
2019-04-01T06:07:35.458Z,93.00
2019-04-01T06:10:06.791Z,91.80
2019-04-01T06:12:36.317Z,91.70
2019-04-01T06:15:06.264Z,91.60
2019-04-01T06:17:34.679Z,91.10
2019-04-01T06:20:04.034Z,91.20
2019-04-01T06:22:32.607Z,90.80
2019-04-01T06:25:01.106Z,90.70
2019-04-01T06:27:29.900Z,90.40
2019-04-01T06:29:59.383Z,90.20
2019-04-01T06:32:27.972Z,90.10
2019-04-01T06:34:56.862Z,89.40
2019-04-01T06:37:25.267Z,88.00
2019-04-01T06:39:53.699Z,88.30
2019-04-01T06:42:22.106Z,87.00
2019-04-01T06:44:50.539Z,86.70
2019-04-01T06:47:19.098Z,85.60
2019-04-01T06:49:47.549Z,85.00
2019-04-01T06:52:16.134Z,85.00
2019-04-01T06:54:44.584Z,84.60
2019-04-01T06:57:12.971Z,81.40
2019-04-01T06:59:41.400Z,82.80
2019-04-01T07:02:09.810Z,82.20
2019-04-01T07:04:38.290Z,80.10
2019-04-01T07:07:18.126Z,81.20
2019-04-01T07:09:36.946Z,81.20
2019-04-01T07:12:05.353Z,81.10
2019-04-01T07:14:33.791Z,80.20
2019-04-01T07:17:02.578Z,80.20
2019-04-01T07:19:31.059Z,78.90
2019-04-01T07:21:59.473Z,78.50
2019-04-01T07:24:28.052Z,78.00
2019-04-01T07:26:56.485Z,76.30
2019-04-01T07:29:24.933Z,75.70
2019-04-01T07:31:53.427Z,76.60
2019-04-01T07:34:21.897Z,74.70
2019-04-01T07:36:50.323Z,74.30
2019-04-01T07:39:19.067Z,72.60
2019-04-01T07:41:47.685Z,70.50
2019-04-01T07:44:16.176Z,70.70
2019-04-01T07:46:44.592Z,69.80
2019-04-01T07:49:12.994Z,68.30
2019-04-01T07:51:42.175Z,68.20
2019-04-01T07:54:10.748Z,66.10
2019-04-01T07:56:39.237Z,67.40
2019-04-01T07:59:07.644Z,67.80
2019-04-01T08:01:36.245Z,66.80
2019-04-01T08:04:04.968Z,65.10
2019-04-01T08:06:33.563Z,63.30
2019-04-01T08:09:02.243Z,61.90
2019-04-01T08:11:30.659Z,60.20
2019-04-01T08:13:59.073Z,61.60
2019-04-01T08:16:27.483Z,61.80
2019-04-01T08:18:55.887Z,60.30
2019-04-01T08:21:24.477Z,59.80
2019-04-01T08:23:52.891Z,59.30
2019-04-01T08:26:21.374Z,58.90
2019-04-01T08:28:49.791Z,58.40
2019-04-01T08:31:18.634Z,57.20
2019-04-01T08:33:50.102Z,56.10
2019-04-01T08:36:17.282Z,56.60
2019-04-01T08:38:45.721Z,56.20
2019-04-01T08:41:14.393Z,56.20
2019-04-01T08:43:42.876Z,57.60
2019-04-01T08:46:11.612Z,58.00
2019-04-01T08:48:40.107Z,57.30
2019-04-01T08:51:08.571Z,57.80
2019-04-01T08:53:36.972Z,57.50
2019-04-01T08:56:05.625Z,56.10
2019-04-01T08:58:34.043Z,56.70
2019-04-01T09:01:02.894Z,56.10
2019-04-01T09:03:31.314Z,56.60
2019-04-01T09:05:59.820Z,56.50
2019-04-01T09:08:28.660Z,55.40
2019-04-01T09:10:57.737Z,54.70
2019-04-01T09:13:26.701Z,54.30
2019-04-01T09:15:55.278Z,53.40
2019-04-01T09:18:23.691Z,53.90
2019-04-01T09:20:52.119Z,52.80
2019-04-01T09:23:20.534Z,52.40
2019-04-01T09:25:49.000Z,51.90
2019-04-01T09:28:17.423Z,52.20
2019-04-01T09:30:45.882Z,52.80
2019-04-01T09:33:14.263Z,52.90
2019-04-01T09:35:42.752Z,52.10
2019-04-01T09:38:11.172Z,51.20
2019-04-01T09:40:39.642Z,51.10
2019-04-01T09:43:08.078Z,50.00
2019-04-01T09:45:36.497Z,48.50
2019-04-01T09:48:05.027Z,49.30
2019-04-01T09:50:33.504Z,47.50
2019-04-01T09:53:01.899Z,46.10
2019-04-01T09:55:30.315Z,44.30
2019-04-01T09:57:58.743Z,43.90
2019-04-01T10:00:27.213Z,42.30
2019-04-01T10:02:55.660Z,42.10
2019-04-01T10:05:24.084Z,42.00
2019-04-01T10:07:52.546Z,40.90
2019-04-01T10:10:21.275Z,39.20
2019-04-01T10:12:49.686Z,39.20
2019-04-01T10:15:18.185Z,38.10
2019-04-01T10:17:46.809Z,38.50
2019-04-01T10:20:16.058Z,37.90
2019-04-01T10:22:44.499Z,37.30
2019-04-01T10:25:13.036Z,38.50
2019-04-01T10:27:41.515Z,38.90
2019-04-01T10:30:11.478Z,38.40
2019-04-01T10:32:39.941Z,37.90
2019-04-01T10:35:08.905Z,38.10
2019-04-01T10:37:37.362Z,38.30
2019-04-01T10:40:07.816Z,37.40
2019-04-01T10:42:36.239Z,36.90
2019-04-01T10:45:07.209Z,36.50
2019-04-01T10:47:35.851Z,36.30
2019-04-01T10:50:05.936Z,36.20
2019-04-01T10:52:34.429Z,35.60
2019-04-01T10:55:03.271Z,34.70
2019-04-01T10:57:31.894Z,33.80
2019-04-01T11:00:00.442Z,34.00
2019-04-01T11:02:29.040Z,34.40
2019-04-01T11:04:57.740Z,33.40
2019-04-01T11:07:26.210Z,33.90
2019-04-01T11:09:54.627Z,33.70
2019-04-01T11:12:23.090Z,34.00
2019-04-01T11:14:52.136Z,33.60
2019-04-01T11:17:20.811Z,32.90
2019-04-01T11:19:49.222Z,32.30
2019-04-01T11:22:17.709Z,32.70
2019-04-01T11:24:46.442Z,32.50
2019-04-01T11:27:14.938Z,32.60
2019-04-01T11:29:43.349Z,32.70
2019-04-01T11:32:13.552Z,32.00
2019-04-01T11:34:42.096Z,32.40
2019-04-01T11:37:10.671Z,32.30
2019-04-01T11:39:39.259Z,30.70
2019-04-01T11:42:07.879Z,32.40
2019-04-01T11:44:36.590Z,32.60
2019-04-01T11:47:05.030Z,32.30
2019-04-01T11:49:33.556Z,32.60
2019-04-01T11:52:02.065Z,32.20
2019-04-01T11:54:30.728Z,31.90
2019-04-01T11:56:59.148Z,32.10
2019-04-01T11:59:27.578Z,32.20
2019-04-01T12:01:55.974Z,33.20
2019-04-01T12:04:24.429Z,33.90
2019-04-01T12:06:52.975Z,32.50
2019-04-01T12:09:21.431Z,32.60
2019-04-01T12:11:49.851Z,31.80
2019-04-01T12:14:18.272Z,31.40
2019-04-01T12:16:46.690Z,31.50
2019-04-01T12:19:18.105Z,30.90
2019-04-01T12:21:45.231Z,31.80
2019-04-01T12:24:13.652Z,31.30
2019-04-01T12:26:42.070Z,32.50
2019-04-01T12:29:12.127Z,31.90
2019-04-01T12:31:40.728Z,31.30
2019-04-01T12:34:09.158Z,30.80
2019-04-01T12:36:37.571Z,31.60
2019-04-01T12:39:07.438Z,30.80
2019-04-01T12:41:36.022Z,31.20
2019-04-01T12:44:05.087Z,30.90
2019-04-01T12:46:33.587Z,32.30
2019-04-01T12:49:02.028Z,33.20
2019-04-01T12:51:30.456Z,33.60
2019-04-01T12:53:58.881Z,34.20
2019-04-01T12:56:27.426Z,34.60
2019-04-01T12:58:55.899Z,34.70
2019-04-01T13:01:24.307Z,34.30
2019-04-01T13:03:52.722Z,35.20
2019-04-01T13:06:22.204Z,35.50
2019-04-01T13:08:50.794Z,36.00
2019-04-01T13:11:19.526Z,36.00
2019-04-01T13:13:48.908Z,36.70
2019-04-01T13:16:17.473Z,36.60
2019-04-01T13:18:47.258Z,37.20
2019-04-01T13:21:15.980Z,37.80
2019-04-01T13:23:44.418Z,37.90
2019-04-01T13:26:12.819Z,37.90
2019-04-01T13:28:42.518Z,38.30
2019-04-01T13:31:11.016Z,37.70
2019-04-01T13:33:39.459Z,38.40
2019-04-01T13:36:08.126Z,38.40
2019-04-01T13:38:37.650Z,38.50
2019-04-01T13:41:06.075Z,38.40
2019-04-01T13:43:34.647Z,38.90
2019-04-01T13:46:03.115Z,38.70
2019-04-01T13:48:31.584Z,39.40
2019-04-01T13:51:01.199Z,39.20
2019-04-01T13:53:29.767Z,39.30
2019-04-01T13:55:58.183Z,39.50
2019-04-01T13:58:26.595Z,39.40
2019-04-01T14:00:55.023Z,38.70
2019-04-01T14:03:23.418Z,39.20
2019-04-01T14:05:51.845Z,39.30
2019-04-01T14:08:20.266Z,38.60
2019-04-01T14:10:48.679Z,38.90
2019-04-01T14:13:17.099Z,38.30
2019-04-01T14:15:45.537Z,39.40
2019-04-01T14:18:13.967Z,39.20
2019-04-01T14:20:42.462Z,38.70
2019-04-01T14:23:10.851Z,39.70
2019-04-01T14:25:39.267Z,39.30
2019-04-01T14:28:09.291Z,39.30
2019-04-01T14:30:37.933Z,40.30
2019-04-01T14:33:06.422Z,37.90
2019-04-01T14:35:36.008Z,39.30
2019-04-01T14:38:04.646Z,39.80
2019-04-01T14:40:33.055Z,39.70
2019-04-01T14:43:01.488Z,40.70
2019-04-01T14:45:29.895Z,39.40
2019-04-01T14:47:58.330Z,39.80
2019-04-01T14:50:26.718Z,39.70
2019-04-01T14:52:55.164Z,40.10
2019-04-01T14:55:23.586Z,39.10
2019-04-01T14:57:52.019Z,39.70
2019-04-01T15:00:20.498Z,39.80
2019-04-01T15:02:48.947Z,39.60
2019-04-01T15:05:17.500Z,39.30
2019-04-01T15:07:46.913Z,39.40
2019-04-01T15:10:16.084Z,39.60
2019-04-01T15:12:44.522Z,40.50
2019-04-01T15:15:13.395Z,40.50
2019-04-01T15:17:41.828Z,38.80
2019-04-01T15:20:10.665Z,38.40
2019-04-01T15:22:39.100Z,37.60
2019-04-01T15:25:07.759Z,37.50
2019-04-01T15:27:36.171Z,37.90
2019-04-01T15:30:07.335Z,38.70
2019-04-01T15:32:35.748Z,38.80
2019-04-01T15:35:06.412Z,38.90
2019-04-01T15:37:35.102Z,39.30
2019-04-01T15:40:05.533Z,39.80
2019-04-01T15:42:34.040Z,40.20
2019-04-01T15:45:02.519Z,40.10
2019-04-01T15:47:30.910Z,40.50
2019-04-01T15:49:59.327Z,40.60
2019-04-01T15:52:27.739Z,40.80
2019-04-01T15:54:57.946Z,40.10
2019-04-01T15:57:26.360Z,40.10
2019-04-01T15:59:55.615Z,40.70
2019-04-01T16:02:24.028Z,41.50
2019-04-01T16:04:52.446Z,41.40
2019-04-01T16:07:22.396Z,41.00
2019-04-01T16:09:51.158Z,41.10
2019-04-01T16:12:20.367Z,41.40
2019-04-01T16:14:48.788Z,41.70
2019-04-01T16:17:17.195Z,41.20
2019-04-01T16:19:45.619Z,41.60
2019-04-01T16:22:14.116Z,41.60
2019-04-01T16:24:42.511Z,41.40
2019-04-01T16:27:10.961Z,42.50
2019-04-01T16:29:39.370Z,42.60
2019-04-01T16:32:07.794Z,42.60
2019-04-01T16:34:36.213Z,42.40
2019-04-01T16:37:04.719Z,42.00
2019-04-01T16:39:33.492Z,42.40
2019-04-01T16:42:07.968Z,42.70
2019-04-01T16:44:38.404Z,42.70
2019-04-01T16:47:06.907Z,42.70
2019-04-01T16:49:36.234Z,42.50
2019-04-01T16:52:05.065Z,42.40
2019-04-01T16:54:35.017Z,42.30
2019-04-01T16:57:03.512Z,42.40
2019-04-01T16:59:32.000Z,42.30
2019-04-01T17:02:00.430Z,42.10
2019-04-01T17:04:28.950Z,42.60
2019-04-01T17:06:58.010Z,42.70
2019-04-01T17:09:28.193Z,42.80
2019-04-01T17:11:56.705Z,43.00
2019-04-01T17:14:25.421Z,42.70
2019-04-01T17:16:53.945Z,42.90
2019-04-01T17:19:22.535Z,43.10
2019-04-01T17:21:51.002Z,43.20
2019-04-01T17:24:19.818Z,43.30
2019-04-01T17:26:58.399Z,43.50
2019-04-01T17:29:26.879Z,43.50
2019-04-01T17:31:55.274Z,43.50
2019-04-01T17:34:23.833Z,43.80
2019-04-01T17:36:53.778Z,43.90
2019-04-01T17:39:22.338Z,44.40
2019-04-01T17:41:50.799Z,43.90
2019-04-01T17:44:19.776Z,43.90
2019-04-01T17:46:49.807Z,44.20
2019-04-01T17:49:18.423Z,44.30
2019-04-01T17:51:47.129Z,43.80
2019-04-01T17:54:15.762Z,44.10
2019-04-01T17:56:46.315Z,44.70
2019-04-01T17:59:17.348Z,45.10
2019-04-01T18:01:45.940Z,45.20
2019-04-01T18:04:14.706Z,45.10
2019-04-01T18:06:43.137Z,45.20
2019-04-01T18:09:12.189Z,45.50
2019-04-01T18:11:40.686Z,45.60
2019-04-01T18:14:09.143Z,45.50
2019-04-01T18:16:37.537Z,45.50
2019-04-01T18:19:06.346Z,45.80
2019-04-01T18:21:38.219Z,46.10
2019-04-01T18:24:05.802Z,46.10
2019-04-01T18:26:34.202Z,46.30
2019-04-01T18:29:02.623Z,46.60
2019-04-01T18:31:33.172Z,47.10
2019-04-01T18:34:01.877Z,47.50
2019-04-01T18:36:30.292Z,47.50
2019-04-01T18:38:58.707Z,47.80
2019-04-01T18:41:27.120Z,47.80
2019-04-01T18:43:57.051Z,47.90
2019-04-01T18:46:25.625Z,48.10
2019-04-01T18:48:54.075Z,48.10
2019-04-01T18:51:22.533Z,48.50
2019-04-01T18:53:50.942Z,48.90
2019-04-01T18:56:19.355Z,49.30
2019-04-01T18:58:47.771Z,49.40
2019-04-01T19:01:16.372Z,49.70
2019-04-01T19:03:44.811Z,50.10
2019-04-01T19:06:13.215Z,50.00
2019-04-01T19:08:41.644Z,50.20
2019-04-01T19:11:10.442Z,50.40
2019-04-01T19:13:38.955Z,50.70
2019-04-01T19:16:08.688Z,50.70
2019-04-01T19:18:39.735Z,50.50
2019-04-01T19:21:08.667Z,50.30
2019-04-01T19:23:37.218Z,50.20
2019-04-01T19:26:05.621Z,50.10
2019-04-01T19:28:34.043Z,49.80
2019-04-01T19:31:02.495Z,50.10
2019-04-01T19:33:30.961Z,50.30
2019-04-01T19:36:01.123Z,50.40
2019-04-01T19:38:29.555Z,50.40
2019-04-01T19:40:59.771Z,50.40
2019-04-01T19:43:28.169Z,50.20
2019-04-01T19:45:56.591Z,50.20
2019-04-01T19:48:25.275Z,50.30
2019-04-01T19:50:53.755Z,50.70
2019-04-01T19:53:22.184Z,50.90
2019-04-01T19:55:50.602Z,50.80
2019-04-01T19:58:19.008Z,51.00
2019-04-01T20:00:47.600Z,50.80
2019-04-01T20:03:16.014Z,51.10
2019-04-01T20:05:44.439Z,50.90
2019-04-01T20:08:14.190Z,51.10
2019-04-01T20:10:42.811Z,51.20
2019-04-01T20:13:11.242Z,51.20
2019-04-01T20:15:40.350Z,51.50
2019-04-01T20:18:09.860Z,51.90
2019-04-01T20:20:41.501Z,51.80
2019-04-01T20:23:10.038Z,51.40
2019-04-01T20:25:38.548Z,52.10
2019-04-01T20:28:06.947Z,52.40
2019-04-01T20:30:35.427Z,52.80
2019-04-01T20:33:16.501Z,53.60
2019-04-01T20:35:34.602Z,53.20
2019-04-01T20:38:03.238Z,53.70
2019-04-01T20:40:31.643Z,54.00
2019-04-01T20:43:00.082Z,54.10
2019-04-01T20:45:28.512Z,54.70
2019-04-01T20:47:56.990Z,55.00
2019-04-01T20:50:25.628Z,55.20
2019-04-01T20:52:54.084Z,55.30
2019-04-01T20:55:22.561Z,55.70
2019-04-01T20:57:54.063Z,55.90
2019-04-01T21:00:22.604Z,56.40
2019-04-01T21:02:51.022Z,56.70
2019-04-01T21:05:19.562Z,56.70
2019-04-01T21:07:48.004Z,56.90
2019-04-01T21:10:17.060Z,56.40
2019-04-01T21:12:45.480Z,56.40
2019-04-01T21:15:14.084Z,56.70
2019-04-01T21:17:42.507Z,57.10
2019-04-01T21:20:11.067Z,57.40
2019-04-01T21:22:39.509Z,57.30
2019-04-01T21:25:08.259Z,57.80
2019-04-01T21:27:36.749Z,58.10
2019-04-01T21:30:11.763Z,58.10
2019-04-01T21:32:40.188Z,57.70
2019-04-01T21:35:09.462Z,57.40
2019-04-01T21:37:38.175Z,57.30
2019-04-01T21:40:07.603Z,57.20
2019-04-01T21:42:36.351Z,57.10
2019-04-01T21:45:07.204Z,57.40
2019-04-01T21:47:35.860Z,57.00
2019-04-01T21:50:06.975Z,57.10
2019-04-01T21:52:35.548Z,57.40
2019-04-01T21:55:08.176Z,57.80
2019-04-01T21:57:35.995Z,57.70
2019-04-01T22:00:07.628Z,58.00
2019-04-01T22:02:36.417Z,58.60
2019-04-01T22:05:07.481Z,59.20
2019-04-01T22:07:35.887Z,58.70
2019-04-01T22:10:05.342Z,59.60
2019-04-01T22:12:33.737Z,60.60
2019-04-01T22:15:02.165Z,61.50
2019-04-01T22:17:30.656Z,61.50
2019-04-01T22:19:59.074Z,62.00
2019-04-01T22:22:27.655Z,63.50
2019-04-01T22:24:59.132Z,63.90
2019-04-01T22:27:27.572Z,63.30
2019-04-01T22:29:56.043Z,63.40
2019-04-01T22:32:24.458Z,63.40
2019-04-01T22:34:52.904Z,62.60
2019-04-01T22:37:26.991Z,63.20
2019-04-01T22:39:51.460Z,62.40
2019-04-01T22:42:19.872Z,61.30
2019-04-01T22:44:48.342Z,61.20
2019-04-01T22:47:17.012Z,61.50
2019-04-01T22:49:45.449Z,62.70
2019-04-01T22:52:13.863Z,61.80
2019-04-01T22:54:42.299Z,61.70
2019-04-01T22:57:10.702Z,62.20
2019-04-01T22:59:39.128Z,62.30
2019-04-01T23:02:07.534Z,62.60
2019-04-01T23:04:36.973Z,61.90
2019-04-01T23:07:05.667Z,62.60
2019-04-01T23:09:34.083Z,64.10
2019-04-01T23:12:02.519Z,64.80
2019-04-01T23:14:30.971Z,64.30
2019-04-01T23:16:59.458Z,63.20
2019-04-01T23:19:27.898Z,63.80
2019-04-01T23:21:56.307Z,62.90
2019-04-01T23:24:24.712Z,63.00
2019-04-01T23:26:53.159Z,64.30
2019-04-01T23:29:22.205Z,63.30
2019-04-01T23:31:51.058Z,62.90
2019-04-01T23:34:19.514Z,63.60
2019-04-01T23:36:48.088Z,63.90
2019-04-01T23:39:16.504Z,65.00
2019-04-01T23:41:45.482Z,64.40
2019-04-01T23:44:13.923Z,64.90
2019-04-01T23:46:42.532Z,65.10
2019-04-01T23:49:11.164Z,65.80
2019-04-01T23:51:39.626Z,65.80
2019-04-01T23:54:08.034Z,65.50
2019-04-01T23:56:36.475Z,65.00
2019-04-01T23:59:04.883Z,65.80
